Arcata Airport
KACV : now visible

Airfield :











YOU CAN JOIN US ON...

 
LOGIN :

Register | Disclaimer

   EN    FR    IT 

 









Legend :    VFR   Marginal VFR   IFR   Intensive IFR   Very Intensive IFR
Visi :
Ceiling :
>= 8 km
>= 3000ft
5 to 8 km
1000 to 3000 ft
1500m to 5 km
500 to 1000 ft
800 to 1500m
200 to 500 ft
< 800m
< 200 ft
Symbols :   Thunderstorms  Fog  Heavy snow  Heavy precipitations  Wind > 20 kt






- Airport Elevation : 221 ft
- IATA code : ACV


KACV - Arcata

CURRENT METAR :
  • 150724Z AUTO 17004KT 9SM -RA SCT022 BKN027 OVC036 07/05 A3006 RMK AO2 P0001 T00670050

EXPIRED METARs :
  • 150653Z AUTO 13005KT 9SM -RA FEW017 BKN038 OVC048 07/05 A3005 RMK AO2 SLP183 P0006 T00670050
  • 150610Z AUTO 09004KT 3SM RA BR SCT017 BKN031 OVC038 07/05 A3005 RMK AO2 P0003 T00670050
  • 150553Z AUTO 09005KT 10SM -RA SCT019 OVC028 07/05 A3004 RMK AO2 SLP180 P0017 60027 T00670050 10072 20056 53009
  • 150536Z AUTO 11004KT 6SM -RA BR SCT015 OVC028 07/05 A3004 RMK AO2 P0017 T00670050
  • 150526Z AUTO VRB05KT 2 1/2SM +RA BR BKN015 BKN024 OVC033 07/05 A3004 RMK AO2 P0016 T00670050
  • 150453Z AUTO 16005KT 10SM -RA SCT019 BKN023 OVC035 07/06 A3002 RMK AO2 RAB03E31B50 SLP174 P0001 T00720056

TAF KACV
Valid from the 15 at 07:00 until the 16 at 06:00 UTC


150704Z 1507/1606 VRB04KT 6SM -RA FEW017 BKN040 OVC050
FM150900 VRB05KT P6SM VCSH SCT025 BKN040
FM151500 VRB03KT P6SM BKN030
FM152100 26005KT P6SM SCT030 BKN050
FM160100 VRB04KT P6SM SCT050



MET'MAP, your aeronautical weather chart ! - Copyright ORBIFLY December 2007 - Disclaimer

ORBIFLY MET'MAP TEAM :

Programming & Development : Alexandra Zaïnal
Concept & original design : Baudouin d'Aumeries
Assistance for programming : Marc-Olivier Méhu
Technical & hardware support : Manuel Goepfert

Contact : metmap@orbifly.com




SOURCES & CREDITS :

   NOAA       Earth
Advisory